Time;durP1;ratioP1;P1;durP2;ratioP2;P2;SDS_P1;SDS_P2;PMS_P1;PMS_P2;Temp;Humidity;BMP_temperature;BMP_pressure;BME280_temperature;BME280_humidity;BME280_pressure;Samples;Min_cycle;Max_cycle;Signal;HPM_P1;HPM_P2
2024/01/12 00:00:33;;;;;;;0.30;0.30;;;;;;;;;;6200275;28;20034;-79
2024/01/12 00:03:35;;;;;;;0.30;0.30;;;;;;;;;;6193067;28;20038;-80
2024/01/12 00:06:35;;;;;;;0.20;0.20;;;;;;;;;;6179932;28;20045;-79
2024/01/12 00:09:35;;;;;;;0.30;0.30;;;;;;;;;;6184195;28;20478;-79
2024/01/12 00:12:35;;;;;;;0.20;0.20;;;;;;;;;;6196712;28;20029;-79
2024/01/12 00:15:36;;;;;;;0.30;0.30;;;;;;;;;;6213799;28;20041;-79
2024/01/12 00:18:36;;;;;;;0.20;0.20;;;;;;;;;;6185174;28;20435;-79
2024/01/12 00:21:36;;;;;;;0.20;0.20;;;;;;;;;;6194746;28;20057;-79
2024/01/12 00:24:37;;;;;;;0.20;0.20;;;;;;;;;;6193496;28;20030;-79
2024/01/12 00:27:37;;;;;;;0.27;0.27;;;;;;;;;;6198176;28;20033;-78
2024/01/12 00:30:37;;;;;;;0.30;0.30;;;;;;;;;;6260609;28;20415;-79
2024/01/12 00:33:37;;;;;;;0.30;0.30;;;;;;;;;;6191088;28;20079;-79
2024/01/12 00:36:37;;;;;;;0.20;0.20;;;;;;;;;;6192217;28;20097;-79
2024/01/12 00:39:38;;;;;;;0.20;0.20;;;;;;;;;;6248886;28;20034;-79
2024/01/12 00:42:38;;;;;;;0.40;0.40;;;;;;;;;;6187397;28;20030;-79
2024/01/12 00:45:38;;;;;;;0.20;0.20;;;;;;;;;;6210755;28;20046;-74
2024/01/12 00:48:38;;;;;;;0.30;0.30;;;;;;;;;;6179352;28;20034;-74
2024/01/12 00:51:39;;;;;;;0.30;0.30;;;;;;;;;;6178257;28;20034;-73
2024/01/12 00:54:39;;;;;;;0.20;0.20;;;;;;;;;;6245039;28;20083;-73
2024/01/12 00:57:39;;;;;;;0.20;0.20;;;;;;;;;;6180338;28;20117;-73
2024/01/12 01:00:39;;;;;;;0.30;0.30;;;;;;;;;;6169061;28;20469;-73
2024/01/12 01:03:39;;;;;;;0.20;0.20;;;;;;;;;;6177964;28;20149;-73
2024/01/12 01:06:40;;;;;;;0.30;0.30;;;;;;;;;;6175893;28;20031;-78
2024/01/12 01:09:40;;;;;;;0.20;0.20;;;;;;;;;;6168866;28;20055;-78
2024/01/12 01:12:40;;;;;;;0.30;0.30;;;;;;;;;;6176368;28;20027;-77
2024/01/12 01:15:40;;;;;;;0.30;0.30;;;;;;;;;;6245659;28;20141;-73
2024/01/12 01:18:40;;;;;;;0.20;0.20;;;;;;;;;;6168525;28;20107;-75
2024/01/12 01:21:41;;;;;;;0.20;0.20;;;;;;;;;;6243690;28;20034;-73
2024/01/12 01:24:41;;;;;;;0.20;0.20;;;;;;;;;;6182601;28;20114;-78
2024/01/12 01:27:41;;;;;;;0.30;0.30;;;;;;;;;;6182032;28;20034;-78
2024/01/12 01:30:41;;;;;;;0.30;0.30;;;;;;;;;;6186187;28;20152;-78
2024/01/12 01:33:42;;;;;;;0.30;0.30;;;;;;;;;;6191242;28;20105;-79
2024/01/12 01:36:42;;;;;;;0.20;0.20;;;;;;;;;;6178447;28;20018;-78
2024/01/12 01:39:42;;;;;;;0.20;0.20;;;;;;;;;;6185273;28;20106;-78
2024/01/12 01:42:45;;;;;;;0.30;0.30;;;;;;;;;;6178212;28;20023;-78
2024/01/12 01:45:45;;;;;;;0.30;0.30;;;;;;;;;;6200652;28;20099;-78
2024/01/12 01:48:46;;;;;;;0.20;0.20;;;;;;;;;;6189375;28;20038;-78
2024/01/12 01:51:46;;;;;;;0.20;0.20;;;;;;;;;;6190131;28;20030;-78
2024/01/12 01:54:47;;;;;;;0.30;0.30;;;;;;;;;;6186484;28;20061;-74
2024/01/12 01:57:47;;;;;;;0.20;0.20;;;;;;;;;;6236868;28;20030;-74
2024/01/12 02:00:49;;;;;;;0.20;0.20;;;;;;;;;;6179377;28;20022;-74
2024/01/12 02:03:49;;;;;;;0.30;0.30;;;;;;;;;;6177295;28;20469;-74
2024/01/12 02:06:51;;;;;;;0.20;0.20;;;;;;;;;;6191872;28;20026;-74
2024/01/12 02:09:51;;;;;;;0.20;0.20;;;;;;;;;;6196097;28;20045;-74
2024/01/12 02:12:51;;;;;;;0.23;0.23;;;;;;;;;;6240953;28;20416;-74
2024/01/12 02:15:52;;;;;;;0.30;0.30;;;;;;;;;;6249988;28;20075;-74
2024/01/12 02:18:52;;;;;;;0.30;0.30;;;;;;;;;;6168343;28;20095;-74
2024/01/12 02:21:52;;;;;;;0.30;0.30;;;;;;;;;;6251150;28;20030;-74
2024/01/12 02:24:52;;;;;;;0.30;0.30;;;;;;;;;;6177347;28;20602;-75
2024/01/12 02:27:53;;;;;;;0.20;0.20;;;;;;;;;;6191099;28;20467;-74
2024/01/12 02:30:53;;;;;;;0.30;0.30;;;;;;;;;;6176615;28;20050;-74
2024/01/12 02:33:53;;;;;;;0.20;0.20;;;;;;;;;;6173406;28;20440;-74
2024/01/12 02:36:53;;;;;;;0.20;0.20;;;;;;;;;;6169045;28;20030;-74
2024/01/12 02:39:54;;;;;;;0.20;0.20;;;;;;;;;;6172316;28;20031;-74
2024/01/12 02:42:54;;;;;;;0.20;0.20;;;;;;;;;;6172425;28;20084;-74
2024/01/12 02:45:54;;;;;;;0.30;0.30;;;;;;;;;;6169067;28;20046;-74
2024/01/12 02:48:54;;;;;;;0.20;0.20;;;;;;;;;;6172567;28;20027;-74
2024/01/12 02:51:54;;;;;;;0.30;0.30;;;;;;;;;;6174349;28;20562;-74
2024/01/12 02:54:55;;;;;;;0.30;0.30;;;;;;;;;;6168642;28;20586;-74
2024/01/12 02:57:55;;;;;;;0.30;0.30;;;;;;;;;;6185594;28;20484;-74
2024/01/12 03:00:55;;;;;;;0.30;0.30;;;;;;;;;;6176629;28;20018;-74
2024/01/12 03:03:56;;;;;;;0.30;0.30;;;;;;;;;;6179775;28;20546;-74
2024/01/12 03:06:56;;;;;;;0.22;0.22;;;;;;;;;;6241648;28;20067;-75
2024/01/12 03:09:58;;;;;;;0.30;0.30;;;;;;;;;;6197959;28;20428;-74
2024/01/12 03:12:58;;;;;;;;;;;;;;;;;;6181926;28;20034;-74
2024/01/12 03:15:59;;;;;;;0.32;0.32;;;;;;;;;;6236335;28;19920;-74
2024/01/12 03:18:59;;;;;;;0.20;0.20;;;;;;;;;;6185678;28;20022;-74
2024/01/12 03:21:59;;;;;;;0.30;0.30;;;;;;;;;;6181347;28;20491;-74
2024/01/12 03:25:00;;;;;;;0.20;0.20;;;;;;;;;;6171616;28;20023;-75
2024/01/12 03:28:01;;;;;;;0.30;0.30;;;;;;;;;;6243408;28;20401;-74
2024/01/12 03:31:02;;;;;;;0.20;0.20;;;;;;;;;;6165949;28;20274;-74
2024/01/12 03:34:03;;;;;;;0.30;0.30;;;;;;;;;;6170193;28;20113;-74
2024/01/12 03:37:03;;;;;;;0.30;0.30;;;;;;;;;;6168739;28;20015;-74
2024/01/12 03:40:04;;;;;;;0.30;0.30;;;;;;;;;;6176706;28;20101;-74
2024/01/12 03:43:04;;;;;;;0.30;0.30;;;;;;;;;;6172468;28;20030;-74
2024/01/12 03:46:05;;;;;;;0.23;0.23;;;;;;;;;;6251796;28;20064;-74
2024/01/12 03:49:05;;;;;;;0.20;0.20;;;;;;;;;;6179947;28;20045;-74
2024/01/12 03:52:06;;;;;;;0.30;0.30;;;;;;;;;;6169828;28;20023;-74
2024/01/12 03:55:06;;;;;;;0.30;0.30;;;;;;;;;;6243204;28;20396;-74
2024/01/12 03:58:06;;;;;;;0.30;0.30;;;;;;;;;;6182632;28;20022;-74
2024/01/12 04:01:07;;;;;;;0.23;0.23;;;;;;;;;;6172993;28;20014;-74
2024/01/12 04:04:07;;;;;;;0.30;0.30;;;;;;;;;;6173214;28;20054;-74
2024/01/12 04:07:07;;;;;;;0.20;0.20;;;;;;;;;;6177836;28;20484;-75
2024/01/12 04:10:08;;;;;;;0.30;0.30;;;;;;;;;;6186009;28;20052;-74
2024/01/12 04:13:08;;;;;;;0.30;0.30;;;;;;;;;;6186060;28;20026;-74
2024/01/12 04:16:08;;;;;;;0.30;0.30;;;;;;;;;;6179480;28;20030;-79
2024/01/12 04:19:08;;;;;;;0.30;0.30;;;;;;;;;;6177302;28;20511;-78
2024/01/12 04:22:09;;;;;;;0.30;0.30;;;;;;;;;;6187893;28;20034;-79
2024/01/12 04:25:09;;;;;;;0.30;0.30;;;;;;;;;;6180351;28;20049;-74
2024/01/12 04:28:09;;;;;;;0.30;0.30;;;;;;;;;;6187807;28;20455;-75
2024/01/12 04:31:09;;;;;;;0.30;0.30;;;;;;;;;;6174914;28;20063;-74
2024/01/12 04:34:10;;;;;;;0.30;0.30;;;;;;;;;;6173132;28;20380;-78
2024/01/12 04:37:10;;;;;;;0.30;0.30;;;;;;;;;;6171700;28;20015;-79
2024/01/12 04:40:10;;;;;;;0.30;0.30;;;;;;;;;;6185349;28;20022;-79
2024/01/12 04:43:10;;;;;;;0.23;0.23;;;;;;;;;;6188463;28;20037;-79
2024/01/12 04:46:11;;;;;;;0.27;0.27;;;;;;;;;;6177831;28;20034;-78
2024/01/12 04:49:11;;;;;;;0.30;0.30;;;;;;;;;;6169049;28;20033;-79
2024/01/12 04:52:11;;;;;;;0.20;0.20;;;;;;;;;;6184104;28;20453;-78
2024/01/12 04:55:11;;;;;;;0.20;0.20;;;;;;;;;;6168930;28;20461;-73
2024/01/12 04:58:11;;;;;;;0.20;0.20;;;;;;;;;;6235875;28;20523;-73
2024/01/12 05:01:12;;;;;;;0.30;0.30;;;;;;;;;;6190240;28;20033;-74
2024/01/12 05:04:12;;;;;;;0.20;0.20;;;;;;;;;;6171994;28;20077;-74
2024/01/12 05:07:12;;;;;;;0.30;0.30;;;;;;;;;;6184804;28;20023;-73
2024/01/12 05:10:12;;;;;;;0.20;0.20;;;;;;;;;;6182655;28;20096;-73
2024/01/12 05:13:13;;;;;;;0.30;0.30;;;;;;;;;;6168346;28;20019;-73
2024/01/12 05:16:13;;;;;;;0.30;0.30;;;;;;;;;;6167617;28;20026;-74
2024/01/12 05:19:13;;;;;;;0.20;0.20;;;;;;;;;;6170480;28;20023;-76
2024/01/12 05:22:14;;;;;;;0.30;0.30;;;;;;;;;;6238076;28;20027;-77
2024/01/12 05:25:14;;;;;;;0.30;0.30;;;;;;;;;;6168881;28;20050;-77
2024/01/12 05:28:14;;;;;;;0.20;0.20;;;;;;;;;;6178753;28;20027;-77
2024/01/12 05:31:15;;;;;;;0.30;0.30;;;;;;;;;;6245580;28;20037;-77
2024/01/12 05:34:15;;;;;;;0.30;0.30;;;;;;;;;;6186940;28;20022;-74
2024/01/12 05:37:15;;;;;;;0.30;0.30;;;;;;;;;;6168990;28;20465;-74
2024/01/12 05:40:15;;;;;;;0.30;0.30;;;;;;;;;;6239994;28;20102;-74
2024/01/12 05:43:17;;;;;;;0.30;0.30;;;;;;;;;;6175482;28;20014;-74
2024/01/12 05:46:19;;;;;;;0.30;0.30;;;;;;;;;;6182526;28;20021;-74
2024/01/12 05:49:19;;;;;;;0.30;0.30;;;;;;;;;;6185820;28;20022;-74
2024/01/12 05:52:19;;;;;;;0.20;0.20;;;;;;;;;;6178705;28;20466;-74
2024/01/12 05:55:19;;;;;;;0.30;0.30;;;;;;;;;;6170003;28;20494;-74
2024/01/12 05:58:20;;;;;;;0.27;0.27;;;;;;;;;;6184725;28;20022;-74
2024/01/12 06:01:20;;;;;;;0.30;0.30;;;;;;;;;;6252151;28;20042;-74
2024/01/12 06:04:20;;;;;;;0.30;0.30;;;;;;;;;;6203969;28;20410;-74
2024/01/12 06:07:21;;;;;;;0.30;0.30;;;;;;;;;;6180168;28;20022;-74
2024/01/12 06:10:21;;;;;;;0.30;0.30;;;;;;;;;;6245204;28;20565;-74
2024/01/12 06:13:21;;;;;;;0.20;0.20;;;;;;;;;;6250757;28;20480;-74
2024/01/12 06:16:21;;;;;;;0.33;0.33;;;;;;;;;;6177880;28;20022;-74
2024/01/12 06:19:22;;;;;;;0.20;0.20;;;;;;;;;;6176286;28;20051;-74
2024/01/12 06:22:22;;;;;;;0.30;0.30;;;;;;;;;;6236052;28;20031;-74
2024/01/12 06:25:23;;;;;;;0.23;0.23;;;;;;;;;;6184204;28;20026;-74
2024/01/12 06:28:23;;;;;;;0.30;0.30;;;;;;;;;;6175823;28;20031;-74
2024/01/12 06:31:23;;;;;;;0.30;0.30;;;;;;;;;;6176736;28;20019;-74
2024/01/12 06:34:23;;;;;;;0.30;0.30;;;;;;;;;;6177739;28;20432;-73
2024/01/12 06:37:24;;;;;;;0.30;0.30;;;;;;;;;;6172318;28;20171;-73
2024/01/12 06:40:24;;;;;;;0.30;0.30;;;;;;;;;;6176148;28;20075;-74
2024/01/12 06:43:24;;;;;;;0.30;0.30;;;;;;;;;;6175206;28;20392;-74
2024/01/12 06:46:25;;;;;;;0.30;0.30;;;;;;;;;;6174119;28;20280;-74
2024/01/12 06:49:25;;;;;;;0.30;0.30;;;;;;;;;;6170678;28;20037;-73
2024/01/12 06:52:25;;;;;;;0.30;0.30;;;;;;;;;;6174838;28;20384;-74
2024/01/12 06:55:26;;;;;;;0.30;0.30;;;;;;;;;;6166720;28;20097;-73
2024/01/12 06:58:26;;;;;;;0.30;0.30;;;;;;;;;;6223113;28;20026;-73
2024/01/12 07:01:26;;;;;;;0.30;0.30;;;;;;;;;;6178780;28;20050;-73
2024/01/12 07:04:26;;;;;;;0.30;0.30;;;;;;;;;;6166773;28;20029;-74
2024/01/12 07:07:26;;;;;;;0.30;0.30;;;;;;;;;;6180859;28;20027;-74
2024/01/12 07:10:27;;;;;;;0.23;0.23;;;;;;;;;;6185985;28;20046;-74
2024/01/12 07:13:27;;;;;;;0.23;0.23;;;;;;;;;;6246564;28;20030;-73
2024/01/12 07:16:27;;;;;;;0.30;0.30;;;;;;;;;;6170683;28;20388;-73
2024/01/12 07:19:27;;;;;;;0.30;0.30;;;;;;;;;;6179053;28;20011;-73
2024/01/12 07:22:28;;;;;;;0.20;0.20;;;;;;;;;;6170585;28;20034;-73
2024/01/12 07:25:29;;;;;;;0.30;0.30;;;;;;;;;;6177494;28;20023;-77
2024/01/12 07:28:31;;;;;;;0.30;0.30;;;;;;;;;;6243730;28;20049;-78
2024/01/12 07:31:33;;;;;;;0.30;0.30;;;;;;;;;;6176512;28;20426;-77
2024/01/12 07:34:33;;;;;;;0.30;0.30;;;;;;;;;;6178905;28;20022;-78
2024/01/12 07:37:33;;;;;;;0.20;0.20;;;;;;;;;;6176047;28;20685;-77
2024/01/12 07:40:33;;;;;;;0.30;0.30;;;;;;;;;;6237517;28;20054;-78
2024/01/12 07:43:33;;;;;;;0.20;0.20;;;;;;;;;;6176518;28;20022;-78
2024/01/12 07:46:34;;;;;;;0.30;0.30;;;;;;;;;;6179378;28;20057;-76
2024/01/12 07:49:35;;;;;;;0.30;0.30;;;;;;;;;;6169274;28;20046;-78
2024/01/12 07:52:35;;;;;;;0.30;0.30;;;;;;;;;;6184146;28;20034;-78
2024/01/12 07:55:35;;;;;;;0.30;0.30;;;;;;;;;;6170397;28;20015;-78
2024/01/12 07:58:35;;;;;;;0.30;0.30;;;;;;;;;;6245483;28;20062;-77
2024/01/12 08:01:36;;;;;;;0.30;0.30;;;;;;;;;;6178226;28;20555;-77
2024/01/12 08:04:39;;;;;;;0.30;0.30;;;;;;;;;;6178348;28;20054;-77
2024/01/12 08:07:39;;;;;;;0.20;0.20;;;;;;;;;;6175813;28;20094;-77
2024/01/12 08:10:39;;;;;;;0.30;0.30;;;;;;;;;;6175214;28;20163;-76
2024/01/12 08:13:40;;;;;;;0.20;0.20;;;;;;;;;;6176131;28;20018;-76
2024/01/12 08:16:40;;;;;;;0.30;0.30;;;;;;;;;;6176448;28;20026;-76
2024/01/12 08:19:40;;;;;;;0.20;0.20;;;;;;;;;;6243179;28;20080;-76
2024/01/12 08:22:41;;;;;;;0.20;0.20;;;;;;;;;;6182210;28;20023;-76
2024/01/12 08:25:41;;;;;;;0.27;0.27;;;;;;;;;;6168898;28;20655;-76
2024/01/12 08:28:41;;;;;;;0.20;0.20;;;;;;;;;;6181821;28;20030;-76
2024/01/12 08:31:42;;;;;;;0.20;0.20;;;;;;;;;;6190558;28;20040;-76
2024/01/12 08:34:42;;;;;;;0.20;0.20;;;;;;;;;;6176794;28;20025;-74
2024/01/12 08:37:43;;;;;;;0.20;0.20;;;;;;;;;;6183589;28;20445;-74
2024/01/12 08:40:43;;;;;;;0.20;0.20;;;;;;;;;;6179924;28;20054;-74
2024/01/12 08:43:43;;;;;;;0.20;0.20;;;;;;;;;;6174794;28;20419;-73
2024/01/12 08:46:43;;;;;;;0.20;0.20;;;;;;;;;;6175636;28;20026;-73
2024/01/12 08:49:44;;;;;;;0.20;0.20;;;;;;;;;;6247307;28;20027;-72
2024/01/12 08:52:44;;;;;;;0.20;0.20;;;;;;;;;;6248295;28;20617;-73
2024/01/12 08:55:44;;;;;;;0.20;0.20;;;;;;;;;;6173705;28;20549;-73
2024/01/12 08:58:44;;;;;;;0.20;0.20;;;;;;;;;;6184964;28;20022;-73
2024/01/12 09:01:45;;;;;;;0.20;0.20;;;;;;;;;;6176016;28;20018;-72
2024/01/12 09:04:45;;;;;;;0.20;0.20;;;;;;;;;;6168035;28;20031;-72
2024/01/12 09:07:46;;;;;;;0.20;0.20;;;;;;;;;;6175512;28;20022;-73
2024/01/12 09:10:46;;;;;;;0.20;0.20;;;;;;;;;;6277869;28;20617;-73
2024/01/12 09:13:47;;;;;;;0.20;0.20;;;;;;;;;;6281401;28;20099;-73
2024/01/12 09:16:47;;;;;;;0.20;0.20;;;;;;;;;;6284851;28;20024;-73
2024/01/12 09:19:47;;;;;;;0.20;0.20;;;;;;;;;;6288412;28;20009;-73
2024/01/12 09:22:47;;;;;;;0.20;0.20;;;;;;;;;;6282945;28;20109;-74
2024/01/12 09:25:49;;;;;;;0.20;0.20;;;;;;;;;;6281691;28;20029;-74
2024/01/12 09:28:50;;;;;;;;;;;;;;;;;;6282012;28;20441;-74
2024/01/12 09:31:50;;;;;;;0.20;0.20;;;;;;;;;;6283316;28;19920;-74
2024/01/12 09:34:50;;;;;;;0.20;0.20;;;;;;;;;;6272961;28;20116;-74
2024/01/12 09:37:50;;;;;;;0.20;0.20;;;;;;;;;;6282240;28;20486;-74
2024/01/12 09:40:51;;;;;;;0.20;0.20;;;;;;;;;;6285683;28;20032;-75
2024/01/12 09:43:52;;;;;;;0.20;0.20;;;;;;;;;;6277868;28;20021;-75
2024/01/12 09:46:52;;;;;;;0.20;0.20;;;;;;;;;;6291608;28;20020;-76
2024/01/12 09:49:53;;;;;;;0.20;0.20;;;;;;;;;;6280174;28;20015;-76
2024/01/12 09:52:54;;;;;;;0.20;0.20;;;;;;;;;;6282055;28;20387;-76
2024/01/12 09:55:54;;;;;;;0.10;0.10;;;;;;;;;;6279169;28;20048;-76
2024/01/12 09:58:54;;;;;;;0.20;0.20;;;;;;;;;;6278596;28;20101;-76
2024/01/12 10:01:56;;;;;;;0.20;0.20;;;;;;;;;;6286511;28;20074;-75
2024/01/12 10:04:56;;;;;;;0.20;0.20;;;;;;;;;;6271896;28;20533;-76
2024/01/12 10:07:57;;;;;;;0.20;0.20;;;;;;;;;;6270920;28;20025;-76
2024/01/12 10:10:57;;;;;;;0.20;0.20;;;;;;;;;;6211766;28;20133;-77
2024/01/12 10:13:57;;;;;;;0.20;0.20;;;;;;;;;;6253389;28;20121;-76
2024/01/12 10:16:58;;;;;;;0.20;0.20;;;;;;;;;;6180589;28;20385;-76
2024/01/12 10:19:58;;;;;;;0.20;0.20;;;;;;;;;;6240612;28;20522;-76
2024/01/12 10:22:59;;;;;;;0.20;0.20;;;;;;;;;;6175564;28;20018;-77
2024/01/12 10:26:00;;;;;;;0.20;0.20;;;;;;;;;;6243168;28;20033;-78
2024/01/12 10:29:02;;;;;;;0.20;0.20;;;;;;;;;;6188760;28;20356;-78
2024/01/12 10:32:03;;;;;;;0.20;0.20;;;;;;;;;;6250843;28;20026;-79
2024/01/12 10:35:04;;;;;;;0.20;0.20;;;;;;;;;;6185079;28;20423;-79
2024/01/12 10:38:06;;;;;;;0.20;0.20;;;;;;;;;;6180786;28;20057;-79
2024/01/12 10:41:09;;;;;;;0.20;0.20;;;;;;;;;;6242881;28;20030;-79
2024/01/12 10:44:10;;;;;;;0.20;0.20;;;;;;;;;;6175025;28;20022;-80
2024/01/12 10:47:17;;;;;;;0.20;0.20;;;;;;;;;;6171502;28;20018;-80
2024/01/12 10:50:18;;;;;;;0.20;0.20;;;;;;;;;;6166721;28;20098;-80
2024/01/12 10:53:20;;;;;;;0.20;0.20;;;;;;;;;;6251868;28;20456;-79
2024/01/12 10:56:21;;;;;;;0.20;0.20;;;;;;;;;;6167580;28;20019;-79
2024/01/12 10:59:22;;;;;;;0.20;0.20;;;;;;;;;;6252526;28;20503;-79
2024/01/12 11:02:22;;;;;;;0.10;0.10;;;;;;;;;;6174458;28;20516;-79
2024/01/12 11:05:24;;;;;;;0.20;0.20;;;;;;;;;;6182575;28;20629;-77
2024/01/12 11:08:26;;;;;;;0.20;0.20;;;;;;;;;;6174670;28;20484;-77
2024/01/12 11:11:40;;;;;;;0.20;0.20;;;;;;;;;;6180371;28;20096;-78
2024/01/12 11:14:40;;;;;;;0.20;0.20;;;;;;;;;;6248105;28;20114;-77
2024/01/12 11:17:41;;;;;;;0.20;0.20;;;;;;;;;;6166329;28;20464;-78
2024/01/12 11:20:43;;;;;;;0.20;0.20;;;;;;;;;;6173043;28;20046;-78
2024/01/12 11:23:44;;;;;;;0.20;0.20;;;;;;;;;;6176362;28;20419;-79
2024/01/12 11:26:44;;;;;;;0.20;0.20;;;;;;;;;;6173518;28;20468;-79
2024/01/12 11:29:44;;;;;;;0.20;0.20;;;;;;;;;;6176246;28;20507;-79
2024/01/12 11:32:45;;;;;;;0.20;0.20;;;;;;;;;;6184937;28;20038;-80
2024/01/12 11:35:51;;;;;;;0.20;0.20;;;;;;;;;;6169349;28;20015;-80
2024/01/12 11:38:55;;;;;;;0.20;0.20;;;;;;;;;;6175539;28;20022;-78
2024/01/12 11:41:56;;;;;;;0.20;0.20;;;;;;;;;;6169341;28;20190;-79
2024/01/12 11:44:56;;;;;;;0.13;0.13;;;;;;;;;;6180689;28;20026;-78
2024/01/12 11:47:56;;;;;;;0.20;0.20;;;;;;;;;;6195270;28;20031;-79
2024/01/12 11:50:56;;;;;;;0.10;0.10;;;;;;;;;;6180981;28;20026;-78
2024/01/12 11:53:57;;;;;;;0.20;0.20;;;;;;;;;;6184829;28;20027;-78
2024/01/12 11:56:57;;;;;;;0.20;0.20;;;;;;;;;;6173667;28;20022;-78
2024/01/12 11:59:57;;;;;;;0.20;0.20;;;;;;;;;;6172866;28;20096;-78
2024/01/12 12:02:57;;;;;;;0.20;0.20;;;;;;;;;;6186420;28;20046;-78
2024/01/12 12:05:58;;;;;;;0.20;0.20;;;;;;;;;;6171880;28;20030;-78
2024/01/12 12:08:58;;;;;;;0.20;0.20;;;;;;;;;;6255286;28;20046;-77
2024/01/12 12:11:58;;;;;;;0.20;0.20;;;;;;;;;;6189936;28;20078;-77
2024/01/12 12:15:01;;;;;;;0.20;0.20;;;;;;;;;;6234310;28;20426;-76
2024/01/12 12:18:02;;;;;;;0.20;0.20;;;;;;;;;;6173080;28;20023;-75
2024/01/12 12:21:02;;;;;;;0.20;0.20;;;;;;;;;;6168358;28;20495;-76
2024/01/12 12:24:02;;;;;;;0.20;0.20;;;;;;;;;;6184533;28;20371;-76
2024/01/12 12:27:05;;;;;;;0.20;0.20;;;;;;;;;;6180862;28;20448;-76
2024/01/12 12:30:08;;;;;;;0.25;0.25;;;;;;;;;;6181560;28;20449;-76
2024/01/12 12:33:10;;;;;;;0.20;0.20;;;;;;;;;;6171681;28;20030;-76
2024/01/12 12:36:10;;;;;;;0.20;0.20;;;;;;;;;;6176817;28;20034;-76
2024/01/12 12:39:10;;;;;;;0.20;0.20;;;;;;;;;;6184723;28;20023;-77
2024/01/12 12:42:11;;;;;;;0.20;0.20;;;;;;;;;;6180122;28;20023;-76
2024/01/12 12:45:12;;;;;;;0.20;0.20;;;;;;;;;;6175264;28;20030;-77
2024/01/12 12:48:13;;;;;;;0.20;0.20;;;;;;;;;;6262911;28;20469;-77
2024/01/12 12:51:14;;;;;;;0.20;0.20;;;;;;;;;;6174503;28;20118;-76
2024/01/12 12:54:14;;;;;;;0.20;0.20;;;;;;;;;;6185004;28;20405;-77
2024/01/12 12:57:14;;;;;;;0.20;0.20;;;;;;;;;;6189429;28;20023;-77
2024/01/12 13:00:14;;;;;;;0.20;0.20;;;;;;;;;;6238083;28;20026;-77
2024/01/12 13:03:15;;;;;;;0.20;0.20;;;;;;;;;;6187192;28;20101;-76
2024/01/12 13:06:15;;;;;;;0.20;0.20;;;;;;;;;;6187519;28;20370;-77
2024/01/12 13:09:15;;;;;;;0.20;0.20;;;;;;;;;;6187948;28;20211;-76
2024/01/12 13:12:16;;;;;;;0.20;0.20;;;;;;;;;;6218017;28;20421;-77
2024/01/12 13:15:17;;;;;;;0.20;0.20;;;;;;;;;;6188353;28;20015;-77
2024/01/12 13:18:17;;;;;;;0.20;0.20;;;;;;;;;;6185899;28;20019;-77
2024/01/12 13:21:18;;;;;;;0.23;0.23;;;;;;;;;;6187520;28;20037;-77
2024/01/12 13:24:18;;;;;;;0.20;0.20;;;;;;;;;;6178063;28;20041;-78
2024/01/12 13:27:19;;;;;;;0.20;0.20;;;;;;;;;;6180902;28;20030;-78
2024/01/12 13:30:19;;;;;;;0.20;0.20;;;;;;;;;;6183898;28;20041;-78
2024/01/12 13:33:19;;;;;;;0.20;0.20;;;;;;;;;;6181224;28;20057;-78
2024/01/12 13:36:19;;;;;;;0.30;0.30;;;;;;;;;;6182512;28;20034;-78
2024/01/12 13:39:20;;;;;;;0.20;0.20;;;;;;;;;;6190040;28;20136;-78
2024/01/12 13:42:20;;;;;;;0.20;0.20;;;;;;;;;;6187786;28;20109;-78
2024/01/12 13:45:20;;;;;;;0.20;0.20;;;;;;;;;;6182972;28;20022;-78
2024/01/12 13:48:25;;;;;;;0.20;0.20;;;;;;;;;;6176155;28;20883;-78
2024/01/12 13:51:26;;;;;;;0.20;0.20;;;;;;;;;;6196229;28;20515;-79
2024/01/12 13:54:26;;;;;;;0.20;0.20;;;;;;;;;;6180182;28;20054;-77
2024/01/12 13:57:26;;;;;;;0.20;0.20;;;;;;;;;;6189316;28;20029;-77
2024/01/12 14:00:26;;;;;;;0.20;0.20;;;;;;;;;;6187006;28;20027;-77
2024/01/12 14:03:27;;;;;;;0.30;0.30;;;;;;;;;;6184531;28;20030;-77
2024/01/12 14:06:27;;;;;;;0.20;0.20;;;;;;;;;;6212332;28;20126;-77
2024/01/12 14:09:29;;;;;;;0.20;0.20;;;;;;;;;;6174358;28;20482;-77
2024/01/12 14:12:29;;;;;;;0.20;0.20;;;;;;;;;;6174654;28;20070;-77
2024/01/12 14:15:29;;;;;;;0.20;0.20;;;;;;;;;;6171933;28;20393;-77
2024/01/12 14:18:29;;;;;;;0.27;0.27;;;;;;;;;;6175398;28;20023;-77
2024/01/12 14:21:31;;;;;;;0.20;0.20;;;;;;;;;;6185911;28;20060;-77
2024/01/12 14:24:31;;;;;;;0.20;0.20;;;;;;;;;;6186124;28;20063;-77
2024/01/12 14:27:31;;;;;;;0.30;0.30;;;;;;;;;;6189383;28;20035;-77
2024/01/12 14:30:32;;;;;;;0.20;0.20;;;;;;;;;;6185518;28;20026;-77
2024/01/12 14:33:33;;;;;;;0.23;0.23;;;;;;;;;;6181795;28;20082;-77
2024/01/12 14:36:33;;;;;;;0.30;0.30;;;;;;;;;;6173885;28;20065;-76
2024/01/12 14:39:33;;;;;;;0.27;0.27;;;;;;;;;;6217691;28;20034;-77
2024/01/12 14:42:33;;;;;;;0.30;0.30;;;;;;;;;;6185861;28;20030;-77
2024/01/12 14:45:34;;;;;;;0.30;0.30;;;;;;;;;;6180445;28;20038;-77
2024/01/12 14:48:34;;;;;;;0.20;0.20;;;;;;;;;;6177446;28;20072;-77
2024/01/12 14:51:35;;;;;;;0.30;0.30;;;;;;;;;;6181235;28;20031;-77
2024/01/12 14:54:35;;;;;;;0.20;0.20;;;;;;;;;;6169834;28;20492;-78
2024/01/12 14:57:38;;;;;;;0.20;0.20;;;;;;;;;;6177416;28;20027;-78
2024/01/12 15:00:38;;;;;;;0.20;0.20;;;;;;;;;;6174570;28;20049;-78
2024/01/12 15:03:40;;;;;;;0.23;0.23;;;;;;;;;;6187457;28;20033;-78
2024/01/12 15:06:46;;;;;;;0.28;0.28;;;;;;;;;;6185112;28;20132;-77
2024/01/12 15:09:48;;;;;;;0.30;0.30;;;;;;;;;;6191166;28;20042;-77
2024/01/12 15:12:50;;;;;;;0.30;0.30;;;;;;;;;;6183319;28;20109;-77
2024/01/12 15:15:50;;;;;;;;;;;;;;;;;;6181598;28;20493;-77
2024/01/12 15:18:51;;;;;;;0.30;0.30;;;;;;;;;;6208934;28;19968;-77
2024/01/12 15:21:51;;;;;;;0.30;0.30;;;;;;;;;;6184250;28;20758;-78
2024/01/12 15:24:53;;;;;;;0.30;0.30;;;;;;;;;;6209180;28;20035;-77
2024/01/12 15:27:53;;;;;;;0.20;0.20;;;;;;;;;;6191040;28;20056;-78
2024/01/12 15:30:53;;;;;;;0.30;0.30;;;;;;;;;;6193413;28;20023;-77
2024/01/12 15:33:53;;;;;;;0.30;0.30;;;;;;;;;;6188214;28;20022;-77
2024/01/12 15:36:54;;;;;;;0.30;0.30;;;;;;;;;;6186833;28;20021;-77
2024/01/12 15:39:54;;;;;;;0.27;0.27;;;;;;;;;;6186211;28;20018;-77
2024/01/12 15:42:54;;;;;;;0.23;0.23;;;;;;;;;;6184870;28;20079;-77
2024/01/12 15:45:55;;;;;;;0.30;0.30;;;;;;;;;;6183805;28;20477;-77
2024/01/12 15:48:55;;;;;;;0.30;0.30;;;;;;;;;;6182280;28;20026;-77
2024/01/12 15:51:55;;;;;;;0.30;0.30;;;;;;;;;;6186194;28;20087;-77
2024/01/12 15:54:55;;;;;;;0.27;0.27;;;;;;;;;;6192813;28;20030;-77
2024/01/12 15:57:56;;;;;;;0.30;0.30;;;;;;;;;;6165503;28;20520;-77
2024/01/12 16:00:56;;;;;;;0.20;0.20;;;;;;;;;;6254200;28;20030;-77
2024/01/12 16:03:56;;;;;;;0.20;0.20;;;;;;;;;;6173186;28;20018;-77
2024/01/12 16:06:56;;;;;;;0.20;0.20;;;;;;;;;;6175392;28;20106;-77
2024/01/12 16:09:56;;;;;;;0.20;0.20;;;;;;;;;;6180423;28;20464;-77
2024/01/12 16:12:57;;;;;;;0.20;0.20;;;;;;;;;;6182489;28;20448;-77
2024/01/12 16:15:57;;;;;;;0.30;0.30;;;;;;;;;;6227293;28;20034;-77
2024/01/12 16:18:57;;;;;;;0.40;0.40;;;;;;;;;;6172556;28;20110;-78
2024/01/12 16:21:59;;;;;;;0.30;0.30;;;;;;;;;;6166530;28;20084;-78
2024/01/12 16:24:59;;;;;;;0.30;0.30;;;;;;;;;;6169044;28;20679;-78
2024/01/12 16:27:59;;;;;;;0.20;0.20;;;;;;;;;;6171565;28;20077;-78
2024/01/12 16:31:00;;;;;;;0.20;0.20;;;;;;;;;;6169500;28;20464;-77
2024/01/12 16:34:00;;;;;;;0.30;0.30;;;;;;;;;;6182511;28;20026;-76
2024/01/12 16:37:01;;;;;;;0.30;0.30;;;;;;;;;;6180626;28;20023;-77
2024/01/12 16:40:01;;;;;;;0.30;0.30;;;;;;;;;;6181819;28;20053;-77
2024/01/12 16:43:01;;;;;;;0.30;0.30;;;;;;;;;;6178921;28;20148;-77
2024/01/12 16:46:02;;;;;;;0.30;0.30;;;;;;;;;;6186171;28;20026;-77
2024/01/12 16:49:02;;;;;;;0.30;0.30;;;;;;;;;;6170823;28;20027;-76
2024/01/12 16:52:03;;;;;;;0.30;0.30;;;;;;;;;;6184708;28;20480;-77
2024/01/12 16:55:05;;;;;;;0.30;0.30;;;;;;;;;;6175256;28;20026;-77
2024/01/12 16:58:06;;;;;;;0.30;0.30;;;;;;;;;;6179868;28;20026;-76
2024/01/12 17:01:06;;;;;;;0.30;0.30;;;;;;;;;;6180771;28;20019;-76
2024/01/12 17:04:06;;;;;;;0.30;0.30;;;;;;;;;;6173330;28;20015;-76
2024/01/12 17:07:06;;;;;;;0.30;0.30;;;;;;;;;;6168205;28;20077;-77
2024/01/12 17:10:08;;;;;;;0.30;0.30;;;;;;;;;;6177088;28;20050;-77
2024/01/12 17:13:09;;;;;;;0.22;0.22;;;;;;;;;;6245147;28;20026;-77
2024/01/12 17:16:09;;;;;;;0.30;0.30;;;;;;;;;;6188009;28;20018;-77
2024/01/12 17:19:09;;;;;;;0.30;0.30;;;;;;;;;;6176283;28;20388;-77
2024/01/12 17:22:10;;;;;;;0.30;0.30;;;;;;;;;;6192635;28;20049;-76
2024/01/12 17:25:10;;;;;;;0.30;0.30;;;;;;;;;;6177366;28;20018;-77
2024/01/12 17:28:10;;;;;;;0.20;0.20;;;;;;;;;;6181253;28;20473;-77
2024/01/12 17:31:10;;;;;;;0.30;0.30;;;;;;;;;;6180374;28;20018;-77
2024/01/12 17:34:11;;;;;;;0.30;0.30;;;;;;;;;;6188546;28;20030;-77
2024/01/12 17:37:11;;;;;;;0.20;0.20;;;;;;;;;;6178377;28;20084;-78
2024/01/12 17:40:12;;;;;;;0.20;0.20;;;;;;;;;;6178715;28;20080;-78
2024/01/12 17:43:12;;;;;;;0.30;0.30;;;;;;;;;;6175374;28;20101;-79
2024/01/12 17:46:12;;;;;;;0.30;0.30;;;;;;;;;;6172019;28;20062;-79
2024/01/12 17:49:12;;;;;;;0.30;0.30;;;;;;;;;;6180698;28;20053;-79
2024/01/12 17:52:12;;;;;;;0.30;0.30;;;;;;;;;;6187182;28;20388;-79
2024/01/12 17:55:13;;;;;;;0.30;0.30;;;;;;;;;;6177013;28;20014;-80
2024/01/12 17:58:13;;;;;;;0.30;0.30;;;;;;;;;;6186828;28;20439;-79
2024/01/12 18:01:17;;;;;;;0.30;0.30;;;;;;;;;;6180429;28;20041;-79